createdAt,value
2023-05-10T00:00:02.166Z,12.99
2023-05-10T00:02:28.678Z,12.96
2023-05-10T00:04:55.150Z,12.97
2023-05-10T00:07:21.729Z,12.98
2023-05-10T00:09:48.185Z,12.92
2023-05-10T00:12:14.583Z,12.93
2023-05-10T00:14:41.051Z,12.86
2023-05-10T00:17:07.439Z,12.87
2023-05-10T00:19:33.931Z,12.82
2023-05-10T00:22:00.326Z,12.84
2023-05-10T00:24:26.933Z,12.82
2023-05-10T00:26:53.393Z,12.79
2023-05-10T00:29:20.566Z,12.79
2023-05-10T00:31:47.119Z,12.79
2023-05-10T00:34:13.658Z,12.79
2023-05-10T00:36:40.133Z,12.81
2023-05-10T00:39:07.014Z,12.79
2023-05-10T00:41:33.662Z,12.79
2023-05-10T00:44:00.217Z,12.79
2023-05-10T00:46:26.972Z,12.80
2023-05-10T00:48:53.664Z,12.79
2023-05-10T00:51:20.530Z,12.79
2023-05-10T00:53:47.305Z,12.80
2023-05-10T00:56:14.086Z,12.77
2023-05-10T00:58:40.981Z,12.74
2023-05-10T01:01:08.622Z,12.72
2023-05-10T01:03:35.661Z,12.70
2023-05-10T01:06:02.504Z,12.72
2023-05-10T01:08:29.849Z,12.78
2023-05-10T01:10:56.464Z,12.67
2023-05-10T01:13:40.470Z,12.66
2023-05-10T01:16:07.809Z,12.65
2023-05-10T01:18:37.400Z,12.68
2023-05-10T01:21:16.177Z,12.68
2023-05-10T01:24:03.594Z,12.61
2023-05-10T01:26:36.420Z,12.60
2023-05-10T01:29:25.657Z,12.58
2023-05-10T01:32:10.802Z,12.62
2023-05-10T01:34:46.175Z,12.64
2023-05-10T01:37:21.306Z,12.66
2023-05-10T01:40:07.353Z,12.56
2023-05-10T01:42:42.510Z,12.61
2023-05-10T01:45:20.844Z,12.66
2023-05-10T01:48:03.191Z,12.59
2023-05-10T01:50:33.590Z,12.63
2023-05-10T01:53:03.339Z,12.59
2023-05-10T01:55:33.120Z,12.62
2023-05-10T01:58:07.115Z,12.61
2023-05-10T02:00:35.366Z,12.64
2023-05-10T02:03:07.456Z,12.51
2023-05-10T02:05:36.342Z,12.57
2023-05-10T02:08:06.810Z,12.57
2023-05-10T02:10:36.166Z,12.55
2023-05-10T02:13:04.213Z,12.50
2023-05-10T02:15:32.052Z,12.50
2023-05-10T02:18:01.070Z,12.46
2023-05-10T02:20:28.203Z,12.43
2023-05-10T02:22:56.831Z,12.39
2023-05-10T02:25:25.004Z,12.34
2023-05-10T02:27:55.072Z,12.36
2023-05-10T02:30:23.556Z,12.36
2023-05-10T02:32:51.539Z,12.34
2023-05-10T02:35:18.511Z,12.32
2023-05-10T02:37:46.190Z,12.26
2023-05-10T02:40:13.833Z,12.25
2023-05-10T02:42:43.181Z,12.25
2023-05-10T02:45:14.235Z,12.11
2023-05-10T02:47:40.989Z,12.05
2023-05-10T02:50:08.278Z,12.03
2023-05-10T02:52:41.686Z,11.99
2023-05-10T02:55:10.838Z,11.99
2023-05-10T02:57:41.742Z,12.03
2023-05-10T03:00:09.440Z,11.98
2023-05-10T03:02:37.294Z,11.90
2023-05-10T03:05:04.399Z,11.86
2023-05-10T03:07:30.924Z,11.82
2023-05-10T03:09:57.703Z,11.86
2023-05-10T03:12:49.096Z,11.80
2023-05-10T03:15:27.731Z,11.75
2023-05-10T03:18:10.202Z,11.59
2023-05-10T03:20:42.348Z,11.61
2023-05-10T03:23:14.759Z,11.63
2023-05-10T03:25:42.110Z,11.60
2023-05-10T03:28:09.808Z,11.62
2023-05-10T03:30:37.505Z,11.61
2023-05-10T03:33:07.816Z,11.45
2023-05-10T03:35:34.895Z,11.50
2023-05-10T03:38:01.844Z,11.38
2023-05-10T03:40:33.053Z,11.30
2023-05-10T03:43:00.373Z,11.39
2023-05-10T03:45:27.434Z,11.42
2023-05-10T03:47:54.906Z,11.42
2023-05-10T03:50:21.928Z,11.47
2023-05-10T03:52:48.328Z,11.38
2023-05-10T03:55:14.794Z,11.40
2023-05-10T03:57:41.647Z,11.40
2023-05-10T04:00:09.115Z,11.42
2023-05-10T04:02:35.680Z,11.48
2023-05-10T04:05:02.719Z,11.46
2023-05-10T04:07:29.386Z,11.42
2023-05-10T04:09:55.845Z,11.41
2023-05-10T04:12:22.399Z,11.30
2023-05-10T04:14:48.817Z,11.31
2023-05-10T04:17:15.343Z,11.31
2023-05-10T04:19:41.792Z,11.34
2023-05-10T04:22:08.164Z,11.29
2023-05-10T04:24:34.739Z,11.21
2023-05-10T04:27:01.477Z,11.21
2023-05-10T04:29:28.032Z,11.25
2023-05-10T04:31:56.201Z,11.25
2023-05-10T04:34:22.666Z,11.24
2023-05-10T04:36:49.149Z,11.26
2023-05-10T04:39:15.664Z,11.27
2023-05-10T04:41:42.086Z,11.29
2023-05-10T04:44:08.502Z,11.25
2023-05-10T04:46:35.077Z,11.26
2023-05-10T04:49:02.022Z,11.30
2023-05-10T04:51:28.433Z,11.29
2023-05-10T04:54:05.328Z,11.20
2023-05-10T04:56:33.503Z,11.27
2023-05-10T04:59:00.035Z,11.20
2023-05-10T05:01:26.569Z,11.18
2023-05-10T05:03:54.068Z,11.22
2023-05-10T05:06:21.903Z,11.20
2023-05-10T05:08:50.359Z,11.21
2023-05-10T05:11:17.946Z,11.18
2023-05-10T05:13:44.897Z,11.22
2023-05-10T05:16:12.276Z,11.22
2023-05-10T05:18:39.216Z,11.24
2023-05-10T05:21:16.048Z,11.25
2023-05-10T05:23:42.617Z,11.23
2023-05-10T05:26:09.193Z,11.21
2023-05-10T05:28:38.108Z,11.23
2023-05-10T05:31:06.513Z,11.21
2023-05-10T05:33:33.002Z,11.23
2023-05-10T05:36:02.336Z,11.25
2023-05-10T05:38:28.920Z,11.28
2023-05-10T05:40:55.401Z,11.29
2023-05-10T05:43:21.773Z,11.29
2023-05-10T05:45:48.371Z,11.33
2023-05-10T05:48:14.750Z,11.32
2023-05-10T05:50:41.179Z,11.32
2023-05-10T05:53:07.582Z,11.29
2023-05-10T05:55:35.011Z,11.34
2023-05-10T05:58:01.389Z,11.37
2023-05-10T06:00:28.016Z,11.37
2023-05-10T06:02:54.616Z,11.40
2023-05-10T06:05:21.897Z,11.39
2023-05-10T06:07:49.636Z,11.39
2023-05-10T06:10:16.249Z,11.36
2023-05-10T06:12:42.792Z,11.40
2023-05-10T06:15:10.596Z,11.39
2023-05-10T06:17:37.010Z,11.41
2023-05-10T06:20:03.952Z,11.40
2023-05-10T06:22:30.585Z,11.44
2023-05-10T06:24:57.116Z,11.46
2023-05-10T06:27:24.071Z,11.50
2023-05-10T06:29:52.272Z,11.52
2023-05-10T06:32:23.026Z,11.56
2023-05-10T06:34:49.416Z,11.59
2023-05-10T06:37:15.922Z,11.62
2023-05-10T06:39:42.351Z,11.62
2023-05-10T06:42:09.045Z,11.67
2023-05-10T06:44:35.751Z,11.69
2023-05-10T06:47:02.140Z,11.73
2023-05-10T06:49:28.600Z,11.76
2023-05-10T06:51:56.580Z,11.79
2023-05-10T06:54:24.007Z,11.77
2023-05-10T06:56:50.400Z,11.83
2023-05-10T06:59:17.652Z,11.85
2023-05-10T07:01:44.216Z,11.85
2023-05-10T07:04:10.915Z,11.83
2023-05-10T07:06:37.559Z,11.83
2023-05-10T07:09:04.067Z,11.84
2023-05-10T07:11:30.443Z,11.86
2023-05-10T07:13:57.005Z,11.87
2023-05-10T07:16:23.500Z,11.95
2023-05-10T07:18:51.304Z,12.01
2023-05-10T07:21:17.762Z,12.08
2023-05-10T07:23:45.258Z,12.14
2023-05-10T07:26:12.497Z,12.17
2023-05-10T07:28:39.122Z,12.28
2023-05-10T07:31:05.772Z,12.38
2023-05-10T07:33:33.330Z,12.52
2023-05-10T07:35:59.750Z,12.56
2023-05-10T07:38:26.100Z,12.62
2023-05-10T07:40:52.551Z,12.69
2023-05-10T07:43:18.905Z,12.75
2023-05-10T07:45:45.309Z,12.83
2023-05-10T07:48:12.260Z,12.81
2023-05-10T07:50:38.733Z,12.89
2023-05-10T07:53:05.077Z,12.92
2023-05-10T07:55:31.502Z,12.95
2023-05-10T07:57:58.113Z,12.90
2023-05-10T08:00:24.461Z,12.90
2023-05-10T08:02:50.891Z,12.94
2023-05-10T08:05:17.663Z,12.93
2023-05-10T08:07:44.230Z,12.95
2023-05-10T08:10:12.254Z,13.00
2023-05-10T08:12:39.319Z,13.01
2023-05-10T08:15:06.671Z,13.05
2023-05-10T08:17:33.591Z,13.12
2023-05-10T08:19:59.990Z,13.11
2023-05-10T08:22:26.982Z,13.17
2023-05-10T08:24:53.458Z,13.26
2023-05-10T08:27:19.811Z,13.29
2023-05-10T08:29:49.991Z,13.40
2023-05-10T08:32:17.084Z,13.45
2023-05-10T08:34:43.604Z,13.54
2023-05-10T08:37:11.409Z,13.67
2023-05-10T08:39:37.879Z,13.79
2023-05-10T08:42:05.844Z,13.84
2023-05-10T08:44:35.296Z,13.89
2023-05-10T08:47:05.463Z,13.89
2023-05-10T08:49:33.536Z,13.90
2023-05-10T08:52:06.212Z,13.85
2023-05-10T08:54:34.082Z,13.74
2023-05-10T08:57:00.850Z,13.73
2023-05-10T08:59:28.356Z,13.72
2023-05-10T09:01:58.294Z,13.66
2023-05-10T09:04:25.316Z,13.68
2023-05-10T09:06:51.849Z,13.72
2023-05-10T09:09:19.257Z,13.80
2023-05-10T09:11:46.120Z,13.78
2023-05-10T09:14:13.532Z,13.90
2023-05-10T09:16:40.876Z,13.92
2023-05-10T09:19:08.337Z,13.95
2023-05-10T09:21:39.089Z,13.96
2023-05-10T09:24:07.623Z,13.93
2023-05-10T09:26:36.380Z,13.96
2023-05-10T09:29:03.881Z,13.97
2023-05-10T09:31:55.806Z,14.05
2023-05-10T09:34:30.414Z,14.17
2023-05-10T09:36:59.209Z,14.22
2023-05-10T09:39:32.887Z,14.27
2023-05-10T09:42:04.777Z,14.31
2023-05-10T09:44:32.174Z,14.39
2023-05-10T09:46:59.434Z,14.48
2023-05-10T09:49:26.149Z,14.59
2023-05-10T09:52:02.970Z,14.66
2023-05-10T09:54:29.395Z,14.72
2023-05-10T09:56:56.097Z,14.67
2023-05-10T09:59:22.506Z,14.69
2023-05-10T10:01:52.464Z,14.74
2023-05-10T10:04:21.381Z,14.73
2023-05-10T10:06:48.001Z,14.82
2023-05-10T10:09:14.964Z,14.86
2023-05-10T10:11:42.366Z,14.98
2023-05-10T10:14:08.953Z,15.05
2023-05-10T10:16:35.983Z,15.16
2023-05-10T10:19:02.683Z,15.26
2023-05-10T10:21:29.313Z,15.33
2023-05-10T10:23:56.141Z,15.47
2023-05-10T10:26:23.517Z,15.62
2023-05-10T10:29:02.531Z,15.86
2023-05-10T10:31:37.995Z,16.11
2023-05-10T10:34:07.941Z,16.37
2023-05-10T10:36:41.822Z,16.71
2023-05-10T10:39:11.640Z,16.86
2023-05-10T10:41:59.625Z,16.74
2023-05-10T10:44:34.216Z,16.57
2023-05-10T10:47:30.971Z,16.58
2023-05-10T10:50:06.520Z,16.36
2023-05-10T10:52:46.114Z,16.27
2023-05-10T10:55:15.497Z,16.35
2023-05-10T10:57:42.571Z,16.26
2023-05-10T11:00:22.649Z,16.24
2023-05-10T11:02:50.603Z,16.22
2023-05-10T11:05:40.460Z,16.22
2023-05-10T11:08:28.706Z,16.17
2023-05-10T11:11:00.958Z,16.07
2023-05-10T11:13:51.135Z,16.08
2023-05-10T11:16:25.262Z,16.07
2023-05-10T11:18:59.419Z,16.23
2023-05-10T11:21:26.327Z,16.25
2023-05-10T11:23:57.723Z,16.25
2023-05-10T11:26:27.013Z,16.39
2023-05-10T11:28:59.365Z,16.42
2023-05-10T11:31:27.987Z,16.32
2023-05-10T11:33:56.661Z,16.46
2023-05-10T11:36:26.923Z,16.50
2023-05-10T11:38:54.484Z,16.48
2023-05-10T11:41:24.733Z,16.62
2023-05-10T11:43:52.733Z,16.51
2023-05-10T11:46:23.835Z,16.72
2023-05-10T11:48:52.481Z,16.81
2023-05-10T11:51:23.945Z,17.04
2023-05-10T11:53:53.437Z,17.05
2023-05-10T11:56:21.593Z,17.16
2023-05-10T11:58:57.656Z,17.19
2023-05-10T12:01:25.889Z,17.21
2023-05-10T12:03:54.651Z,17.16
2023-05-10T12:06:22.218Z,17.15
2023-05-10T12:08:53.424Z,17.13
2023-05-10T12:11:21.844Z,17.17
2023-05-10T12:13:48.924Z,17.11
2023-05-10T12:16:17.256Z,17.19
2023-05-10T12:18:43.974Z,17.14
2023-05-10T12:21:11.765Z,17.10
2023-05-10T12:23:42.125Z,17.01
2023-05-10T12:26:11.760Z,16.82
2023-05-10T12:28:39.378Z,16.68
2023-05-10T12:31:07.080Z,16.51
2023-05-10T12:33:43.924Z,16.26
2023-05-10T12:36:12.415Z,15.92
2023-05-10T12:38:49.521Z,15.86
2023-05-10T12:41:18.287Z,15.77
2023-05-10T12:43:46.406Z,15.69
2023-05-10T12:46:15.116Z,15.60
2023-05-10T12:48:43.388Z,15.52
2023-05-10T12:51:12.635Z,15.34
2023-05-10T12:53:41.434Z,15.29
2023-05-10T12:56:08.882Z,15.30
2023-05-10T12:58:36.344Z,15.28
2023-05-10T13:01:03.248Z,15.31
2023-05-10T13:03:29.835Z,15.33
2023-05-10T13:05:56.239Z,15.27
2023-05-10T13:08:22.643Z,15.22
2023-05-10T13:10:49.394Z,15.25
2023-05-10T13:13:16.458Z,15.21
2023-05-10T13:15:42.915Z,15.22
2023-05-10T13:18:09.352Z,15.16
2023-05-10T13:20:35.975Z,15.10
2023-05-10T13:23:03.480Z,15.14
2023-05-10T13:25:30.018Z,15.15
2023-05-10T13:27:56.444Z,15.19
2023-05-10T13:30:23.066Z,15.18
2023-05-10T13:32:49.513Z,15.11
2023-05-10T13:35:16.439Z,15.14
2023-05-10T13:37:42.806Z,15.16
2023-05-10T13:40:09.452Z,15.21
2023-05-10T13:42:35.837Z,15.28
2023-05-10T13:45:05.415Z,15.25
2023-05-10T13:47:31.945Z,15.21
2023-05-10T13:49:58.706Z,15.22
2023-05-10T13:52:25.370Z,15.17
2023-05-10T13:54:55.713Z,15.24
2023-05-10T13:57:22.441Z,15.16
2023-05-10T13:59:49.060Z,15.16
2023-05-10T14:02:15.560Z,15.14
2023-05-10T14:04:42.096Z,15.11
2023-05-10T14:07:08.880Z,15.10
2023-05-10T14:09:35.280Z,15.07
2023-05-10T14:12:01.785Z,15.02
2023-05-10T14:14:30.082Z,14.94
2023-05-10T14:16:56.875Z,14.88
2023-05-10T14:19:23.486Z,14.84
2023-05-10T14:21:49.909Z,14.85
2023-05-10T14:24:16.342Z,14.81
2023-05-10T14:26:42.690Z,14.77
2023-05-10T14:29:11.504Z,14.77
2023-05-10T14:31:38.836Z,14.76
2023-05-10T14:34:05.382Z,14.76
2023-05-10T14:36:32.710Z,14.80
2023-05-10T14:38:59.164Z,14.79
2023-05-10T14:41:25.712Z,14.77
2023-05-10T14:43:52.328Z,14.70
2023-05-10T14:46:19.202Z,14.61
2023-05-10T14:48:45.735Z,14.61
2023-05-10T14:51:12.273Z,14.55
2023-05-10T14:53:38.631Z,14.53
2023-05-10T14:56:05.212Z,14.55
2023-05-10T14:58:33.953Z,14.52
2023-05-10T15:01:00.644Z,14.35
2023-05-10T15:03:27.689Z,14.28
2023-05-10T15:05:54.652Z,14.22
2023-05-10T15:08:21.116Z,14.10
2023-05-10T15:10:47.767Z,14.03
2023-05-10T15:13:14.170Z,13.87
2023-05-10T15:15:40.804Z,13.79
2023-05-10T15:18:07.444Z,13.67
2023-05-10T15:20:33.951Z,13.67
2023-05-10T15:23:00.494Z,13.66
2023-05-10T15:25:27.226Z,13.67
2023-05-10T15:27:53.654Z,13.59
2023-05-10T15:30:20.728Z,13.61
2023-05-10T15:32:48.912Z,13.57
2023-05-10T15:35:18.898Z,13.51
2023-05-10T15:37:45.629Z,13.49
2023-05-10T15:40:12.424Z,13.51
2023-05-10T15:42:38.933Z,13.44
2023-05-10T15:45:06.013Z,13.37
2023-05-10T15:47:32.628Z,13.33
2023-05-10T15:49:59.165Z,13.26
2023-05-10T15:52:25.546Z,13.20
2023-05-10T15:54:51.938Z,13.13
2023-05-10T15:57:18.367Z,13.07
2023-05-10T15:59:45.832Z,13.01
2023-05-10T16:02:12.454Z,13.01
2023-05-10T16:04:39.080Z,12.90
2023-05-10T16:07:05.709Z,12.86
2023-05-10T16:09:32.059Z,12.84
2023-05-10T16:11:58.487Z,12.91
2023-05-10T16:14:24.940Z,12.86
2023-05-10T16:16:51.663Z,12.86
2023-05-10T16:19:18.423Z,12.79
2023-05-10T16:21:45.124Z,12.75
2023-05-10T16:24:12.034Z,12.72
2023-05-10T16:26:40.972Z,12.69
2023-05-10T16:29:08.696Z,12.64
2023-05-10T16:31:35.414Z,12.65
2023-05-10T16:34:02.180Z,12.67
2023-05-10T16:36:29.628Z,12.68
2023-05-10T16:38:56.542Z,12.67
2023-05-10T16:41:23.249Z,12.69
2023-05-10T16:43:50.282Z,12.68
2023-05-10T16:46:16.793Z,12.64
2023-05-10T16:48:43.472Z,12.69
2023-05-10T16:51:10.105Z,12.71
2023-05-10T16:53:36.619Z,12.70
2023-05-10T16:56:03.607Z,12.71
2023-05-10T16:58:30.075Z,12.70
2023-05-10T17:00:56.502Z,12.74
2023-05-10T17:03:23.331Z,12.69
2023-05-10T17:05:49.896Z,12.62
2023-05-10T17:08:16.429Z,12.60
2023-05-10T17:10:43.053Z,12.54
2023-05-10T17:13:10.612Z,12.56
2023-05-10T17:15:37.962Z,12.59
2023-05-10T17:18:05.012Z,12.49
2023-05-10T17:20:31.603Z,12.44
2023-05-10T17:22:58.048Z,12.39
2023-05-10T17:25:24.467Z,12.44
2023-05-10T17:27:50.911Z,12.41
2023-05-10T17:30:22.403Z,12.28
2023-05-10T17:32:49.038Z,12.31
2023-05-10T17:35:15.953Z,12.28
2023-05-10T17:37:44.101Z,12.21
2023-05-10T17:40:11.418Z,12.26
2023-05-10T17:42:37.984Z,12.23
2023-05-10T17:45:04.862Z,12.26
2023-05-10T17:47:31.512Z,12.29
2023-05-10T17:49:58.064Z,12.32
2023-05-10T17:52:24.509Z,12.30
2023-05-10T17:54:51.139Z,12.26
2023-05-10T17:57:17.524Z,12.17
2023-05-10T17:59:44.016Z,12.23
2023-05-10T18:02:10.673Z,12.23
2023-05-10T18:04:43.000Z,12.20
2023-05-10T18:07:09.934Z,12.21
2023-05-10T18:09:36.309Z,12.20
2023-05-10T18:12:03.391Z,12.22
2023-05-10T18:14:40.074Z,12.21
2023-05-10T18:17:07.571Z,12.19
2023-05-10T18:19:34.189Z,12.19
2023-05-10T18:22:00.679Z,12.11
2023-05-10T18:24:38.421Z,12.09
2023-05-10T18:27:06.974Z,12.05
2023-05-10T18:29:33.417Z,12.03
2023-05-10T18:31:59.854Z,12.03
2023-05-10T18:34:26.809Z,12.05
2023-05-10T18:36:53.354Z,12.05
2023-05-10T18:39:19.988Z,12.05
2023-05-10T18:41:46.543Z,12.06
2023-05-10T18:44:13.047Z,11.99
2023-05-10T18:46:39.548Z,11.95
2023-05-10T18:49:08.268Z,11.95
2023-05-10T18:51:34.891Z,11.90
2023-05-10T18:54:01.390Z,11.87
2023-05-10T18:56:27.830Z,11.85
2023-05-10T18:58:54.396Z,11.78
2023-05-10T19:01:21.174Z,11.74
2023-05-10T19:03:47.667Z,11.72
2023-05-10T19:06:14.138Z,11.63
2023-05-10T19:08:40.561Z,11.64
2023-05-10T19:11:07.113Z,11.60
2023-05-10T19:13:33.970Z,11.54
2023-05-10T19:16:05.387Z,11.61
2023-05-10T19:18:33.677Z,11.52
2023-05-10T19:21:03.726Z,11.51
2023-05-10T19:23:34.397Z,11.49
2023-05-10T19:26:01.386Z,11.48
2023-05-10T19:28:28.042Z,11.48
2023-05-10T19:30:54.633Z,11.44
2023-05-10T19:33:21.343Z,11.41
2023-05-10T19:35:51.974Z,11.45
2023-05-10T19:38:25.139Z,11.41
2023-05-10T19:40:57.912Z,11.39
2023-05-10T19:43:28.824Z,11.37
2023-05-10T19:45:58.926Z,11.39
2023-05-10T19:48:25.780Z,11.35
2023-05-10T19:50:53.021Z,11.28
2023-05-10T19:53:19.520Z,11.29
2023-05-10T19:55:46.151Z,11.32
2023-05-10T19:58:12.571Z,11.30
2023-05-10T20:00:39.065Z,11.25
2023-05-10T20:03:07.014Z,11.29
2023-05-10T20:05:35.540Z,11.28
2023-05-10T20:08:01.995Z,11.26
2023-05-10T20:10:28.433Z,11.25
2023-05-10T20:12:54.953Z,11.25
2023-05-10T20:15:23.055Z,11.23
2023-05-10T20:17:52.049Z,11.19
2023-05-10T20:20:20.072Z,11.20
2023-05-10T20:22:47.929Z,11.12
2023-05-10T20:25:15.836Z,11.13
2023-05-10T20:27:42.487Z,11.10
2023-05-10T20:30:10.301Z,11.07
2023-05-10T20:32:37.833Z,11.08
2023-05-10T20:35:05.289Z,11.07
2023-05-10T20:37:31.818Z,11.06
2023-05-10T20:39:58.402Z,11.02
2023-05-10T20:42:24.947Z,11.00
2023-05-10T20:44:51.604Z,11.02
2023-05-10T20:47:18.256Z,11.03
2023-05-10T20:49:44.708Z,11.01
2023-05-10T20:52:11.550Z,11.01
2023-05-10T20:54:37.969Z,11.01
2023-05-10T20:57:04.501Z,11.00
2023-05-10T20:59:31.068Z,10.96
2023-05-10T21:01:58.125Z,10.93
2023-05-10T21:04:25.663Z,10.94
2023-05-10T21:06:53.005Z,10.93
2023-05-10T21:09:19.441Z,10.95
2023-05-10T21:11:46.012Z,10.94
2023-05-10T21:14:12.542Z,10.91
2023-05-10T21:16:39.092Z,10.96
2023-05-10T21:19:07.081Z,10.96
2023-05-10T21:21:33.825Z,10.96
2023-05-10T21:24:00.246Z,10.96
2023-05-10T21:26:26.821Z,10.95
2023-05-10T21:28:53.374Z,10.91
2023-05-10T21:31:20.134Z,10.95
2023-05-10T21:33:46.602Z,10.95
2023-05-10T21:36:13.102Z,10.94
2023-05-10T21:38:40.328Z,10.90
2023-05-10T21:41:07.733Z,10.90
2023-05-10T21:43:34.148Z,10.91
2023-05-10T21:46:00.972Z,10.89
2023-05-10T21:48:27.354Z,10.87
2023-05-10T21:50:53.715Z,10.88
2023-05-10T21:53:20.301Z,10.86
2023-05-10T21:55:46.825Z,10.81
2023-05-10T21:58:13.366Z,10.83
2023-05-10T22:00:39.978Z,10.84
2023-05-10T22:03:06.620Z,10.83
2023-05-10T22:05:33.298Z,10.80
2023-05-10T22:08:00.199Z,10.82
2023-05-10T22:10:26.661Z,10.81
2023-05-10T22:12:53.125Z,10.78
2023-05-10T22:15:19.535Z,10.76
2023-05-10T22:17:45.956Z,10.80
2023-05-10T22:20:12.720Z,10.79
2023-05-10T22:22:39.507Z,10.80
2023-05-10T22:25:07.469Z,10.84
2023-05-10T22:27:34.623Z,10.82
2023-05-10T22:30:01.513Z,10.80
2023-05-10T22:32:28.337Z,10.80
2023-05-10T22:34:54.926Z,10.78
2023-05-10T22:37:21.411Z,10.83
2023-05-10T22:39:48.819Z,10.79
2023-05-10T22:42:15.856Z,10.78
2023-05-10T22:44:43.096Z,10.77
2023-05-10T22:47:09.762Z,10.75
2023-05-10T22:49:36.440Z,10.77
2023-05-10T22:52:03.007Z,10.78
2023-05-10T22:54:29.451Z,10.72
2023-05-10T22:56:56.456Z,10.77
2023-05-10T22:59:23.237Z,10.75
2023-05-10T23:01:49.738Z,10.77
2023-05-10T23:04:16.167Z,10.74
2023-05-10T23:06:42.596Z,10.74
2023-05-10T23:09:09.719Z,10.69
2023-05-10T23:11:36.352Z,10.66
2023-05-10T23:14:05.832Z,10.60
2023-05-10T23:16:32.663Z,10.60
2023-05-10T23:18:59.259Z,10.62
2023-05-10T23:21:25.728Z,10.56
2023-05-10T23:23:52.408Z,10.55
2023-05-10T23:26:18.984Z,10.42
2023-05-10T23:28:45.468Z,10.45
2023-05-10T23:31:11.898Z,10.48
2023-05-10T23:33:38.326Z,10.44
2023-05-10T23:36:05.062Z,10.47
2023-05-10T23:38:31.556Z,10.46
2023-05-10T23:40:58.061Z,10.43
2023-05-10T23:43:25.281Z,10.43
2023-05-10T23:45:56.586Z,10.39
2023-05-10T23:48:23.495Z,10.37
2023-05-10T23:50:50.058Z,10.32
2023-05-10T23:53:16.709Z,10.34
2023-05-10T23:55:43.443Z,10.27
2023-05-10T23:58:09.908Z,10.26
